sensor_id;sensor_type;location;lat;lon;timestamp;temperature;humidity
17442;DHT22;8838;50.144;8.176;2023-06-10T00:00:17;20.40;99.90
17442;DHT22;8838;50.144;8.176;2023-06-10T00:02:44;20.40;99.90
17442;DHT22;8838;50.144;8.176;2023-06-10T00:05:10;20.30;99.90
17442;DHT22;8838;50.144;8.176;2023-06-10T00:07:37;20.30;99.90
17442;DHT22;8838;50.144;8.176;2023-06-10T00:10:04;20.30;99.90
17442;DHT22;8838;50.144;8.176;2023-06-10T00:12:32;20.40;99.90
17442;DHT22;8838;50.144;8.176;2023-06-10T00:15:06;20.30;99.90
17442;DHT22;8838;50.144;8.176;2023-06-10T00:17:33;20.30;99.90
17442;DHT22;8838;50.144;8.176;2023-06-10T00:20:00;20.30;99.90
17442;DHT22;8838;50.144;8.176;2023-06-10T00:22:30;20.30;99.90
17442;DHT22;8838;50.144;8.176;2023-06-10T00:24:57;20.30;99.90
17442;DHT22;8838;50.144;8.176;2023-06-10T00:27:24;20.30;99.90
17442;DHT22;8838;50.144;8.176;2023-06-10T00:29:56;20.20;99.90
17442;DHT22;8838;50.144;8.176;2023-06-10T00:32:24;20.20;99.90
17442;DHT22;8838;50.144;8.176;2023-06-10T00:34:51;20.20;99.90
17442;DHT22;8838;50.144;8.176;2023-06-10T00:37:18;20.20;99.90
17442;DHT22;8838;50.144;8.176;2023-06-10T00:39:44;20.20;99.90
17442;DHT22;8838;50.144;8.176;2023-06-10T00:42:11;20.20;99.90
17442;DHT22;8838;50.144;8.176;2023-06-10T00:44:38;20.10;99.90
17442;DHT22;8838;50.144;8.176;2023-06-10T00:47:06;20.00;99.90
17442;DHT22;8838;50.144;8.176;2023-06-10T00:49:35;20.10;99.90
17442;DHT22;8838;50.144;8.176;2023-06-10T00:52:04;20.10;99.90
17442;DHT22;8838;50.144;8.176;2023-06-10T00:54:31;20.10;99.90
17442;DHT22;8838;50.144;8.176;2023-06-10T00:57:00;20.00;99.90
17442;DHT22;8838;50.144;8.176;2023-06-10T00:59:28;20.10;99.90
17442;DHT22;8838;50.144;8.176;2023-06-10T01:01:56;20.10;99.90
17442;DHT22;8838;50.144;8.176;2023-06-10T01:04:23;20.00;99.90
17442;DHT22;8838;50.144;8.176;2023-06-10T01:07:02;19.90;99.90
17442;DHT22;8838;50.144;8.176;2023-06-10T01:09:36;19.90;99.90
17442;DHT22;8838;50.144;8.176;2023-06-10T01:12:10;19.90;99.90
17442;DHT22;8838;50.144;8.176;2023-06-10T01:14:38;19.90;99.90
17442;DHT22;8838;50.144;8.176;2023-06-10T01:17:10;19.80;99.90
17442;DHT22;8838;50.144;8.176;2023-06-10T01:19:37;19.70;99.90
17442;DHT22;8838;50.144;8.176;2023-06-10T01:22:07;19.50;99.90
17442;DHT22;8838;50.144;8.176;2023-06-10T01:24:36;19.40;99.90
17442;DHT22;8838;50.144;8.176;2023-06-10T01:27:13;19.30;99.90
17442;DHT22;8838;50.144;8.176;2023-06-10T01:29:46;19.10;99.90
17442;DHT22;8838;50.144;8.176;2023-06-10T01:32:23;19.00;99.90
17442;DHT22;8838;50.144;8.176;2023-06-10T01:34:54;18.80;99.90
17442;DHT22;8838;50.144;8.176;2023-06-10T01:37:23;18.70;99.90
17442;DHT22;8838;50.144;8.176;2023-06-10T01:39:57;18.60;99.90
17442;DHT22;8838;50.144;8.176;2023-06-10T01:42:25;18.50;99.90
17442;DHT22;8838;50.144;8.176;2023-06-10T01:44:52;18.40;99.90
17442;DHT22;8838;50.144;8.176;2023-06-10T01:47:19;18.30;99.90
17442;DHT22;8838;50.144;8.176;2023-06-10T01:49:46;18.30;99.90
17442;DHT22;8838;50.144;8.176;2023-06-10T01:52:13;18.20;99.90
17442;DHT22;8838;50.144;8.176;2023-06-10T01:54:41;18.00;99.90
17442;DHT22;8838;50.144;8.176;2023-06-10T01:57:08;17.90;99.90
17442;DHT22;8838;50.144;8.176;2023-06-10T01:59:35;17.90;99.90
17442;DHT22;8838;50.144;8.176;2023-06-10T02:02:03;17.80;99.90
17442;DHT22;8838;50.144;8.176;2023-06-10T02:04:30;17.80;99.90
17442;DHT22;8838;50.144;8.176;2023-06-10T02:06:57;17.70;99.90
17442;DHT22;8838;50.144;8.176;2023-06-10T02:09:24;17.60;99.90
17442;DHT22;8838;50.144;8.176;2023-06-10T02:11:53;17.50;99.90
17442;DHT22;8838;50.144;8.176;2023-06-10T02:14:20;17.40;99.90
17442;DHT22;8838;50.144;8.176;2023-06-10T02:16:47;17.30;99.90
17442;DHT22;8838;50.144;8.176;2023-06-10T02:19:14;17.20;99.90
17442;DHT22;8838;50.144;8.176;2023-06-10T02:21:41;17.00;99.90
17442;DHT22;8838;50.144;8.176;2023-06-10T02:24:08;17.00;99.90
17442;DHT22;8838;50.144;8.176;2023-06-10T02:26:35;16.90;99.90
17442;DHT22;8838;50.144;8.176;2023-06-10T02:29:03;16.80;99.90
17442;DHT22;8838;50.144;8.176;2023-06-10T02:31:30;16.60;99.90
17442;DHT22;8838;50.144;8.176;2023-06-10T02:33:56;16.60;99.90
17442;DHT22;8838;50.144;8.176;2023-06-10T02:36:23;16.60;99.90
17442;DHT22;8838;50.144;8.176;2023-06-10T02:38:53;16.50;99.90
17442;DHT22;8838;50.144;8.176;2023-06-10T02:41:21;16.50;99.90
17442;DHT22;8838;50.144;8.176;2023-06-10T02:43:48;16.50;99.90
17442;DHT22;8838;50.144;8.176;2023-06-10T02:46:16;16.40;99.90
17442;DHT22;8838;50.144;8.176;2023-06-10T02:48:43;16.40;99.90
17442;DHT22;8838;50.144;8.176;2023-06-10T02:51:10;16.30;99.90
17442;DHT22;8838;50.144;8.176;2023-06-10T02:53:37;16.30;99.90
17442;DHT22;8838;50.144;8.176;2023-06-10T02:56:04;16.30;99.90
17442;DHT22;8838;50.144;8.176;2023-06-10T02:58:31;16.30;99.90
17442;DHT22;8838;50.144;8.176;2023-06-10T03:00:57;16.20;99.90
17442;DHT22;8838;50.144;8.176;2023-06-10T03:03:26;16.20;99.90
17442;DHT22;8838;50.144;8.176;2023-06-10T03:05:53;16.20;99.90
17442;DHT22;8838;50.144;8.176;2023-06-10T03:08:20;16.20;99.90
17442;DHT22;8838;50.144;8.176;2023-06-10T03:10:46;16.10;99.90
17442;DHT22;8838;50.144;8.176;2023-06-10T03:13:13;16.10;99.90
17442;DHT22;8838;50.144;8.176;2023-06-10T03:15:41;16.00;99.90
17442;DHT22;8838;50.144;8.176;2023-06-10T03:18:07;15.90;99.90
17442;DHT22;8838;50.144;8.176;2023-06-10T03:20:35;15.80;99.90
17442;DHT22;8838;50.144;8.176;2023-06-10T03:23:04;15.80;99.90
17442;DHT22;8838;50.144;8.176;2023-06-10T03:25:31;15.70;99.90
17442;DHT22;8838;50.144;8.176;2023-06-10T03:27:58;15.70;99.90
17442;DHT22;8838;50.144;8.176;2023-06-10T03:30:25;15.70;99.90
17442;DHT22;8838;50.144;8.176;2023-06-10T03:32:52;15.70;99.90
17442;DHT22;8838;50.144;8.176;2023-06-10T03:35:19;15.60;99.90
17442;DHT22;8838;50.144;8.176;2023-06-10T03:37:47;15.60;99.90
17442;DHT22;8838;50.144;8.176;2023-06-10T03:40:14;15.50;99.90
17442;DHT22;8838;50.144;8.176;2023-06-10T03:42:41;15.60;99.90
17442;DHT22;8838;50.144;8.176;2023-06-10T03:45:10;15.50;99.90
17442;DHT22;8838;50.144;8.176;2023-06-10T03:47:37;15.40;99.90
17442;DHT22;8838;50.144;8.176;2023-06-10T03:50:06;15.40;99.90
17442;DHT22;8838;50.144;8.176;2023-06-10T03:52:34;15.40;99.90
17442;DHT22;8838;50.144;8.176;2023-06-10T03:55:06;15.40;99.90
17442;DHT22;8838;50.144;8.176;2023-06-10T03:57:33;15.30;99.90
17442;DHT22;8838;50.144;8.176;2023-06-10T04:00:00;15.40;99.90
17442;DHT22;8838;50.144;8.176;2023-06-10T04:02:30;15.30;99.90
17442;DHT22;8838;50.144;8.176;2023-06-10T04:04:58;15.30;99.90
17442;DHT22;8838;50.144;8.176;2023-06-10T04:07:25;15.30;99.90
17442;DHT22;8838;50.144;8.176;2023-06-10T04:09:52;15.30;99.90
17442;DHT22;8838;50.144;8.176;2023-06-10T04:12:20;15.30;99.90
17442;DHT22;8838;50.144;8.176;2023-06-10T04:14:47;15.30;99.90
17442;DHT22;8838;50.144;8.176;2023-06-10T04:17:14;15.30;99.90
17442;DHT22;8838;50.144;8.176;2023-06-10T04:19:41;15.40;99.90
17442;DHT22;8838;50.144;8.176;2023-06-10T04:22:07;15.40;99.90
17442;DHT22;8838;50.144;8.176;2023-06-10T04:24:34;15.40;99.90
17442;DHT22;8838;50.144;8.176;2023-06-10T04:27:01;15.50;99.90
17442;DHT22;8838;50.144;8.176;2023-06-10T04:29:30;15.40;99.90
17442;DHT22;8838;50.144;8.176;2023-06-10T04:31:56;15.40;99.90
17442;DHT22;8838;50.144;8.176;2023-06-10T04:34:23;15.40;99.90
17442;DHT22;8838;50.144;8.176;2023-06-10T04:36:51;15.40;99.90
17442;DHT22;8838;50.144;8.176;2023-06-10T04:39:18;15.50;99.90
17442;DHT22;8838;50.144;8.176;2023-06-10T04:41:45;15.50;99.90
17442;DHT22;8838;50.144;8.176;2023-06-10T04:44:12;15.50;99.90
17442;DHT22;8838;50.144;8.176;2023-06-10T04:46:40;15.50;99.90
17442;DHT22;8838;50.144;8.176;2023-06-10T04:49:07;15.60;99.90
17442;DHT22;8838;50.144;8.176;2023-06-10T04:51:34;15.60;99.90
17442;DHT22;8838;50.144;8.176;2023-06-10T04:54:01;15.60;99.90
17442;DHT22;8838;50.144;8.176;2023-06-10T04:56:29;15.70;99.90
17442;DHT22;8838;50.144;8.176;2023-06-10T04:58:56;15.80;99.90
17442;DHT22;8838;50.144;8.176;2023-06-10T05:01:23;15.80;99.90
17442;DHT22;8838;50.144;8.176;2023-06-10T05:03:51;15.90;99.90
17442;DHT22;8838;50.144;8.176;2023-06-10T05:06:18;15.90;99.90
17442;DHT22;8838;50.144;8.176;2023-06-10T05:08:45;15.90;99.90
17442;DHT22;8838;50.144;8.176;2023-06-10T05:11:12;16.00;99.90
17442;DHT22;8838;50.144;8.176;2023-06-10T05:13:39;16.00;99.90
17442;DHT22;8838;50.144;8.176;2023-06-10T05:16:06;16.00;99.90
17442;DHT22;8838;50.144;8.176;2023-06-10T05:18:33;16.10;99.90
17442;DHT22;8838;50.144;8.176;2023-06-10T05:21:02;16.20;99.90
17442;DHT22;8838;50.144;8.176;2023-06-10T05:23:29;16.30;99.90
17442;DHT22;8838;50.144;8.176;2023-06-10T05:25:56;16.30;99.90
17442;DHT22;8838;50.144;8.176;2023-06-10T05:28:23;16.40;99.90
17442;DHT22;8838;50.144;8.176;2023-06-10T05:30:50;16.50;99.90
17442;DHT22;8838;50.144;8.176;2023-06-10T05:33:17;16.60;99.90
17442;DHT22;8838;50.144;8.176;2023-06-10T05:35:44;16.80;99.90
17442;DHT22;8838;50.144;8.176;2023-06-10T05:38:12;16.90;99.90
17442;DHT22;8838;50.144;8.176;2023-06-10T05:40:39;17.00;99.90
17442;DHT22;8838;50.144;8.176;2023-06-10T05:43:05;17.00;99.90
17442;DHT22;8838;50.144;8.176;2023-06-10T05:45:32;17.20;99.90
17442;DHT22;8838;50.144;8.176;2023-06-10T05:47:59;17.20;99.90
17442;DHT22;8838;50.144;8.176;2023-06-10T05:50:26;17.40;99.90
17442;DHT22;8838;50.144;8.176;2023-06-10T05:52:52;17.50;99.90
17442;DHT22;8838;50.144;8.176;2023-06-10T05:55:21;17.60;99.90
17442;DHT22;8838;50.144;8.176;2023-06-10T05:57:58;17.70;99.90
17442;DHT22;8838;50.144;8.176;2023-06-10T06:00:25;17.70;99.90
17442;DHT22;8838;50.144;8.176;2023-06-10T06:02:52;17.80;99.90
17442;DHT22;8838;50.144;8.176;2023-06-10T06:05:19;17.90;99.90
17442;DHT22;8838;50.144;8.176;2023-06-10T06:07:46;18.00;99.90
17442;DHT22;8838;50.144;8.176;2023-06-10T06:10:13;18.10;99.90
17442;DHT22;8838;50.144;8.176;2023-06-10T06:12:41;18.20;99.90
17442;DHT22;8838;50.144;8.176;2023-06-10T06:15:09;18.30;99.90
17442;DHT22;8838;50.144;8.176;2023-06-10T06:17:36;18.40;99.90
17442;DHT22;8838;50.144;8.176;2023-06-10T06:20:04;18.60;99.90
17442;DHT22;8838;50.144;8.176;2023-06-10T06:22:31;18.80;99.90
17442;DHT22;8838;50.144;8.176;2023-06-10T06:25:01;18.90;99.90
17442;DHT22;8838;50.144;8.176;2023-06-10T06:27:28;19.10;99.90
17442;DHT22;8838;50.144;8.176;2023-06-10T06:29:56;19.20;99.90
17442;DHT22;8838;50.144;8.176;2023-06-10T06:32:23;19.40;99.90
17442;DHT22;8838;50.144;8.176;2023-06-10T06:34:52;19.50;99.90
17442;DHT22;8838;50.144;8.176;2023-06-10T06:37:22;19.60;99.90
17442;DHT22;8838;50.144;8.176;2023-06-10T06:39:52;19.80;99.90
17442;DHT22;8838;50.144;8.176;2023-06-10T06:42:19;19.90;99.90
17442;DHT22;8838;50.144;8.176;2023-06-10T06:44:46;20.00;99.90
17442;DHT22;8838;50.144;8.176;2023-06-10T06:47:14;20.20;99.90
17442;DHT22;8838;50.144;8.176;2023-06-10T06:49:43;20.40;99.90
17442;DHT22;8838;50.144;8.176;2023-06-10T06:52:10;20.50;99.90
17442;DHT22;8838;50.144;8.176;2023-06-10T06:54:36;20.60;99.90
17442;DHT22;8838;50.144;8.176;2023-06-10T06:57:05;20.70;99.90
17442;DHT22;8838;50.144;8.176;2023-06-10T06:59:32;20.80;99.90
17442;DHT22;8838;50.144;8.176;2023-06-10T07:01:59;20.90;99.90
17442;DHT22;8838;50.144;8.176;2023-06-10T07:04:27;21.10;99.90
17442;DHT22;8838;50.144;8.176;2023-06-10T07:06:54;21.20;99.90
17442;DHT22;8838;50.144;8.176;2023-06-10T07:09:21;21.50;99.90
17442;DHT22;8838;50.144;8.176;2023-06-10T07:11:48;21.60;99.90
17442;DHT22;8838;50.144;8.176;2023-06-10T07:14:15;21.90;99.90
17442;DHT22;8838;50.144;8.176;2023-06-10T07:16:41;22.10;99.90
17442;DHT22;8838;50.144;8.176;2023-06-10T07:19:10;22.40;99.90
17442;DHT22;8838;50.144;8.176;2023-06-10T07:21:38;22.50;99.90
17442;DHT22;8838;50.144;8.176;2023-06-10T07:24:06;22.60;99.90
17442;DHT22;8838;50.144;8.176;2023-06-10T07:26:33;22.70;99.90
17442;DHT22;8838;50.144;8.176;2023-06-10T07:28:59;22.70;99.90
17442;DHT22;8838;50.144;8.176;2023-06-10T07:31:26;22.90;99.90
17442;DHT22;8838;50.144;8.176;2023-06-10T07:33:53;23.00;99.90
17442;DHT22;8838;50.144;8.176;2023-06-10T07:36:20;23.10;99.90
17442;DHT22;8838;50.144;8.176;2023-06-10T07:38:48;23.30;99.90
17442;DHT22;8838;50.144;8.176;2023-06-10T07:41:15;23.50;99.90
17442;DHT22;8838;50.144;8.176;2023-06-10T07:43:43;23.70;99.90
17442;DHT22;8838;50.144;8.176;2023-06-10T07:46:10;23.90;99.90
17442;DHT22;8838;50.144;8.176;2023-06-10T07:48:37;24.10;99.90
17442;DHT22;8838;50.144;8.176;2023-06-10T07:51:03;24.30;99.90
17442;DHT22;8838;50.144;8.176;2023-06-10T07:53:30;24.60;99.90
17442;DHT22;8838;50.144;8.176;2023-06-10T07:55:58;24.70;99.90
17442;DHT22;8838;50.144;8.176;2023-06-10T07:58:25;25.10;99.90
17442;DHT22;8838;50.144;8.176;2023-06-10T08:00:52;25.50;99.90
17442;DHT22;8838;50.144;8.176;2023-06-10T08:03:19;25.90;99.90
17442;DHT22;8838;50.144;8.176;2023-06-10T08:05:48;26.20;99.90
17442;DHT22;8838;50.144;8.176;2023-06-10T08:08:15;26.50;99.90
17442;DHT22;8838;50.144;8.176;2023-06-10T08:10:45;26.90;99.90
17442;DHT22;8838;50.144;8.176;2023-06-10T08:13:13;27.40;99.90
17442;DHT22;8838;50.144;8.176;2023-06-10T08:15:39;27.50;99.90
17442;DHT22;8838;50.144;8.176;2023-06-10T08:18:06;27.90;99.90
17442;DHT22;8838;50.144;8.176;2023-06-10T08:20:33;28.00;99.90
17442;DHT22;8838;50.144;8.176;2023-06-10T08:23:00;28.20;99.90
17442;DHT22;8838;50.144;8.176;2023-06-10T08:25:28;28.40;99.90
17442;DHT22;8838;50.144;8.176;2023-06-10T08:27:55;28.60;99.90
17442;DHT22;8838;50.144;8.176;2023-06-10T08:30:24;28.90;99.90
17442;DHT22;8838;50.144;8.176;2023-06-10T08:32:51;29.20;99.90
17442;DHT22;8838;50.144;8.176;2023-06-10T08:35:18;29.40;99.90
17442;DHT22;8838;50.144;8.176;2023-06-10T08:37:45;29.50;99.90
17442;DHT22;8838;50.144;8.176;2023-06-10T08:40:12;29.70;99.90
17442;DHT22;8838;50.144;8.176;2023-06-10T08:42:42;30.10;99.90
17442;DHT22;8838;50.144;8.176;2023-06-10T08:45:14;30.30;99.90
17442;DHT22;8838;50.144;8.176;2023-06-10T08:47:50;30.40;99.90
17442;DHT22;8838;50.144;8.176;2023-06-10T08:50:17;30.70;99.90
17442;DHT22;8838;50.144;8.176;2023-06-10T08:52:47;31.00;99.90
17442;DHT22;8838;50.144;8.176;2023-06-10T08:55:17;31.10;99.90
17442;DHT22;8838;50.144;8.176;2023-06-10T08:57:45;31.40;99.90
17442;DHT22;8838;50.144;8.176;2023-06-10T09:00:13;31.20;99.90
17442;DHT22;8838;50.144;8.176;2023-06-10T09:02:41;30.60;99.90
17442;DHT22;8838;50.144;8.176;2023-06-10T09:05:12;29.90;99.90
17442;DHT22;8838;50.144;8.176;2023-06-10T09:07:40;29.60;99.90
17442;DHT22;8838;50.144;8.176;2023-06-10T09:10:10;29.20;99.90
17442;DHT22;8838;50.144;8.176;2023-06-10T09:12:37;29.20;99.90
17442;DHT22;8838;50.144;8.176;2023-06-10T09:15:05;29.10;99.60
17442;DHT22;8838;50.144;8.176;2023-06-10T09:17:35;29.20;99.90
17442;DHT22;8838;50.144;8.176;2023-06-10T09:20:04;29.00;99.90
17442;DHT22;8838;50.144;8.176;2023-06-10T09:22:32;29.40;99.90
17442;DHT22;8838;50.144;8.176;2023-06-10T09:25:03;29.90;99.60
17442;DHT22;8838;50.144;8.176;2023-06-10T09:27:31;30.70;99.90
17442;DHT22;8838;50.144;8.176;2023-06-10T09:29:58;30.80;97.90
17442;DHT22;8838;50.144;8.176;2023-06-10T09:32:25;30.60;99.10
17442;DHT22;8838;50.144;8.176;2023-06-10T09:34:53;30.60;97.80
17442;DHT22;8838;50.144;8.176;2023-06-10T09:37:20;30.80;97.10
17442;DHT22;8838;50.144;8.176;2023-06-10T09:40:02;31.30;98.30
17442;DHT22;8838;50.144;8.176;2023-06-10T09:42:33;31.60;96.10
17442;DHT22;8838;50.144;8.176;2023-06-10T09:45:00;31.50;96.00
17442;DHT22;8838;50.144;8.176;2023-06-10T09:47:27;31.80;95.40
17442;DHT22;8838;50.144;8.176;2023-06-10T09:49:55;31.60;95.60
17442;DHT22;8838;50.144;8.176;2023-06-10T09:52:22;31.80;96.40
17442;DHT22;8838;50.144;8.176;2023-06-10T09:54:49;32.10;94.60
17442;DHT22;8838;50.144;8.176;2023-06-10T09:57:19;32.60;94.10
17442;DHT22;8838;50.144;8.176;2023-06-10T09:59:47;33.10;93.70
17442;DHT22;8838;50.144;8.176;2023-06-10T10:02:14;33.00;94.00
17442;DHT22;8838;50.144;8.176;2023-06-10T10:04:42;33.50;93.00
17442;DHT22;8838;50.144;8.176;2023-06-10T10:07:08;33.40;92.60
17442;DHT22;8838;50.144;8.176;2023-06-10T10:09:36;33.20;92.90
17442;DHT22;8838;50.144;8.176;2023-06-10T10:12:07;32.90;92.20
17442;DHT22;8838;50.144;8.176;2023-06-10T10:14:38;32.90;92.20
17442;DHT22;8838;50.144;8.176;2023-06-10T10:17:07;33.10;92.30
17442;DHT22;8838;50.144;8.176;2023-06-10T10:19:43;32.90;92.30
17442;DHT22;8838;50.144;8.176;2023-06-10T10:22:19;32.60;90.80
17442;DHT22;8838;50.144;8.176;2023-06-10T10:24:50;31.80;93.00
17442;DHT22;8838;50.144;8.176;2023-06-10T10:27:21;32.20;92.10
17442;DHT22;8838;50.144;8.176;2023-06-10T10:29:54;31.70;91.50
17442;DHT22;8838;50.144;8.176;2023-06-10T10:32:28;31.60;92.10
17442;DHT22;8838;50.144;8.176;2023-06-10T10:35:02;31.40;93.00
17442;DHT22;8838;50.144;8.176;2023-06-10T10:37:31;32.00;93.10
17442;DHT22;8838;50.144;8.176;2023-06-10T10:39:59;32.40;92.10
17442;DHT22;8838;50.144;8.176;2023-06-10T10:42:26;32.80;91.90
17442;DHT22;8838;50.144;8.176;2023-06-10T10:44:55;32.60;91.60
17442;DHT22;8838;50.144;8.176;2023-06-10T10:47:26;32.20;91.10
17442;DHT22;8838;50.144;8.176;2023-06-10T10:49:54;32.60;92.30
17442;DHT22;8838;50.144;8.176;2023-06-10T10:52:25;33.00;90.40
17442;DHT22;8838;50.144;8.176;2023-06-10T10:54:53;32.10;90.90
17442;DHT22;8838;50.144;8.176;2023-06-10T10:57:21;31.90;90.50
17442;DHT22;8838;50.144;8.176;2023-06-10T10:59:55;31.20;91.20
17442;DHT22;8838;50.144;8.176;2023-06-10T11:02:35;31.00;92.60
17442;DHT22;8838;50.144;8.176;2023-06-10T11:05:05;31.50;91.00
17442;DHT22;8838;50.144;8.176;2023-06-10T11:07:33;31.60;91.20
17442;DHT22;8838;50.144;8.176;2023-06-10T11:10:05;31.30;90.40
17442;DHT22;8838;50.144;8.176;2023-06-10T11:12:49;30.80;90.90
17442;DHT22;8838;50.144;8.176;2023-06-10T11:15:20;30.60;90.50
17442;DHT22;8838;50.144;8.176;2023-06-10T11:18:11;30.70;91.10
17442;DHT22;8838;50.144;8.176;2023-06-10T11:21:00;30.50;90.90
17442;DHT22;8838;50.144;8.176;2023-06-10T11:23:37;30.50;91.30
17442;DHT22;8838;50.144;8.176;2023-06-10T11:26:13;30.40;90.50
17442;DHT22;8838;50.144;8.176;2023-06-10T11:28:40;30.50;91.30
17442;DHT22;8838;50.144;8.176;2023-06-10T11:31:12;30.90;90.50
17442;DHT22;8838;50.144;8.176;2023-06-10T11:33:46;30.70;90.90
17442;DHT22;8838;50.144;8.176;2023-06-10T11:36:13;31.20;88.40
17442;DHT22;8838;50.144;8.176;2023-06-10T11:38:40;30.90;89.20
17442;DHT22;8838;50.144;8.176;2023-06-10T11:41:07;31.20;90.20
17442;DHT22;8838;50.144;8.176;2023-06-10T11:43:34;30.80;89.10
17442;DHT22;8838;50.144;8.176;2023-06-10T11:46:01;30.70;90.20
17442;DHT22;8838;50.144;8.176;2023-06-10T11:48:29;30.90;90.00
17442;DHT22;8838;50.144;8.176;2023-06-10T11:50:57;30.70;90.60
17442;DHT22;8838;50.144;8.176;2023-06-10T11:53:23;30.70;90.10
17442;DHT22;8838;50.144;8.176;2023-06-10T11:55:51;30.30;90.60
17442;DHT22;8838;50.144;8.176;2023-06-10T11:58:20;30.10;91.10
17442;DHT22;8838;50.144;8.176;2023-06-10T12:00:48;29.90;91.20
17442;DHT22;8838;50.144;8.176;2023-06-10T12:03:16;29.70;91.60
17442;DHT22;8838;50.144;8.176;2023-06-10T12:05:56;29.80;91.10
17442;DHT22;8838;50.144;8.176;2023-06-10T12:08:24;30.00;93.00
17442;DHT22;8838;50.144;8.176;2023-06-10T12:10:51;30.40;93.00
17442;DHT22;8838;50.144;8.176;2023-06-10T12:13:18;30.70;92.20
17442;DHT22;8838;50.144;8.176;2023-06-10T12:15:45;30.60;92.70
17442;DHT22;8838;50.144;8.176;2023-06-10T12:18:16;30.40;92.00
17442;DHT22;8838;50.144;8.176;2023-06-10T12:20:46;30.60;91.70
17442;DHT22;8838;50.144;8.176;2023-06-10T12:23:15;30.70;90.50
17442;DHT22;8838;50.144;8.176;2023-06-10T12:25:50;31.10;91.20
17442;DHT22;8838;50.144;8.176;2023-06-10T12:28:21;30.60;88.00
17442;DHT22;8838;50.144;8.176;2023-06-10T12:30:48;30.60;91.10
17442;DHT22;8838;50.144;8.176;2023-06-10T12:33:18;30.70;90.30
17442;DHT22;8838;50.144;8.176;2023-06-10T12:35:48;30.30;89.40
17442;DHT22;8838;50.144;8.176;2023-06-10T12:38:22;30.50;89.70
17442;DHT22;8838;50.144;8.176;2023-06-10T12:40:50;30.60;88.70
17442;DHT22;8838;50.144;8.176;2023-06-10T12:43:19;30.40;89.40
17442;DHT22;8838;50.144;8.176;2023-06-10T12:45:46;30.10;90.50
17442;DHT22;8838;50.144;8.176;2023-06-10T12:48:18;30.50;90.20
17442;DHT22;8838;50.144;8.176;2023-06-10T12:50:49;30.70;90.10
17442;DHT22;8838;50.144;8.176;2023-06-10T12:53:16;31.00;90.00
17442;DHT22;8838;50.144;8.176;2023-06-10T12:55:45;31.10;89.20
17442;DHT22;8838;50.144;8.176;2023-06-10T12:58:13;31.20;87.90
17442;DHT22;8838;50.144;8.176;2023-06-10T13:00:40;31.00;88.60
17442;DHT22;8838;50.144;8.176;2023-06-10T13:03:08;30.40;87.30
17442;DHT22;8838;50.144;8.176;2023-06-10T13:05:35;30.50;90.50
17442;DHT22;8838;50.144;8.176;2023-06-10T13:08:04;30.90;90.30
17442;DHT22;8838;50.144;8.176;2023-06-10T13:10:31;30.90;89.10
17442;DHT22;8838;50.144;8.176;2023-06-10T13:12:59;30.70;90.70
17442;DHT22;8838;50.144;8.176;2023-06-10T13:15:26;30.30;89.10
17442;DHT22;8838;50.144;8.176;2023-06-10T13:17:56;29.50;89.90
17442;DHT22;8838;50.144;8.176;2023-06-10T13:20:22;29.10;90.50
17442;DHT22;8838;50.144;8.176;2023-06-10T13:22:49;29.00;91.40
17442;DHT22;8838;50.144;8.176;2023-06-10T13:25:16;29.10;91.40
17442;DHT22;8838;50.144;8.176;2023-06-10T13:27:43;29.30;91.00
17442;DHT22;8838;50.144;8.176;2023-06-10T13:30:12;29.80;92.00
17442;DHT22;8838;50.144;8.176;2023-06-10T13:32:39;29.80;90.10
17442;DHT22;8838;50.144;8.176;2023-06-10T13:35:07;30.10;89.70
17442;DHT22;8838;50.144;8.176;2023-06-10T13:37:34;30.20;91.10
17442;DHT22;8838;50.144;8.176;2023-06-10T13:40:01;30.60;91.60
17442;DHT22;8838;50.144;8.176;2023-06-10T13:42:28;31.00;90.70
17442;DHT22;8838;50.144;8.176;2023-06-10T13:44:55;31.20;90.40
17442;DHT22;8838;50.144;8.176;2023-06-10T13:47:24;31.00;91.00
17442;DHT22;8838;50.144;8.176;2023-06-10T13:49:51;30.60;90.80
17442;DHT22;8838;50.144;8.176;2023-06-10T13:52:17;30.30;91.30
17442;DHT22;8838;50.144;8.176;2023-06-10T13:54:44;30.40;91.40
17442;DHT22;8838;50.144;8.176;2023-06-10T13:57:11;30.10;91.20
17442;DHT22;8838;50.144;8.176;2023-06-10T13:59:38;29.70;92.20
17442;DHT22;8838;50.144;8.176;2023-06-10T14:02:05;29.30;92.30
17442;DHT22;8838;50.144;8.176;2023-06-10T14:04:34;29.00;92.80
17442;DHT22;8838;50.144;8.176;2023-06-10T14:07:00;28.80;93.30
17442;DHT22;8838;50.144;8.176;2023-06-10T14:09:30;28.80;92.90
17442;DHT22;8838;50.144;8.176;2023-06-10T14:11:57;28.80;93.10
17442;DHT22;8838;50.144;8.176;2023-06-10T14:14:36;29.10;94.00
17442;DHT22;8838;50.144;8.176;2023-06-10T14:17:04;29.70;93.40
17442;DHT22;8838;50.144;8.176;2023-06-10T14:19:31;30.00;92.20
17442;DHT22;8838;50.144;8.176;2023-06-10T14:21:59;29.90;92.70
17442;DHT22;8838;50.144;8.176;2023-06-10T14:24:26;29.80;92.30
17442;DHT22;8838;50.144;8.176;2023-06-10T14:26:53;29.60;93.30
17442;DHT22;8838;50.144;8.176;2023-06-10T14:29:20;29.60;93.90
17442;DHT22;8838;50.144;8.176;2023-06-10T14:31:47;29.60;93.30
17442;DHT22;8838;50.144;8.176;2023-06-10T14:34:14;29.70;93.30
17442;DHT22;8838;50.144;8.176;2023-06-10T14:36:41;29.80;93.20
17442;DHT22;8838;50.144;8.176;2023-06-10T14:39:09;30.00;92.40
17442;DHT22;8838;50.144;8.176;2023-06-10T14:41:36;30.20;93.80
17442;DHT22;8838;50.144;8.176;2023-06-10T14:44:03;30.30;93.30
17442;DHT22;8838;50.144;8.176;2023-06-10T14:46:34;30.10;93.30
17442;DHT22;8838;50.144;8.176;2023-06-10T14:49:01;30.20;92.90
17442;DHT22;8838;50.144;8.176;2023-06-10T14:51:28;30.40;92.80
17442;DHT22;8838;50.144;8.176;2023-06-10T14:53:57;30.70;93.50
17442;DHT22;8838;50.144;8.176;2023-06-10T14:56:26;30.50;92.60
17442;DHT22;8838;50.144;8.176;2023-06-10T14:58:52;30.10;93.90
17442;DHT22;8838;50.144;8.176;2023-06-10T15:01:22;29.70;94.50
17442;DHT22;8838;50.144;8.176;2023-06-10T15:03:49;29.30;94.50
17442;DHT22;8838;50.144;8.176;2023-06-10T15:06:15;29.00;94.70
17442;DHT22;8838;50.144;8.176;2023-06-10T15:08:46;28.80;94.70
17442;DHT22;8838;50.144;8.176;2023-06-10T15:11:13;28.40;95.30
17442;DHT22;8838;50.144;8.176;2023-06-10T15:13:42;28.20;95.90
17442;DHT22;8838;50.144;8.176;2023-06-10T15:16:09;28.10;96.50
17442;DHT22;8838;50.144;8.176;2023-06-10T15:18:36;27.90;96.50
17442;DHT22;8838;50.144;8.176;2023-06-10T15:21:03;27.80;96.50
17442;DHT22;8838;50.144;8.176;2023-06-10T15:23:29;27.70;96.90
17442;DHT22;8838;50.144;8.176;2023-06-10T15:25:56;27.60;97.10
17442;DHT22;8838;50.144;8.176;2023-06-10T15:28:23;27.70;97.50
17442;DHT22;8838;50.144;8.176;2023-06-10T15:30:52;27.80;97.90
17442;DHT22;8838;50.144;8.176;2023-06-10T15:33:18;28.10;97.50
17442;DHT22;8838;50.144;8.176;2023-06-10T15:35:45;28.30;97.00
17442;DHT22;8838;50.144;8.176;2023-06-10T15:38:12;28.30;97.40
17442;DHT22;8838;50.144;8.176;2023-06-10T15:40:40;28.40;97.60
17442;DHT22;8838;50.144;8.176;2023-06-10T15:43:10;28.50;98.20
17442;DHT22;8838;50.144;8.176;2023-06-10T15:45:38;28.60;97.10
17442;DHT22;8838;50.144;8.176;2023-06-10T15:48:06;28.70;94.30
17442;DHT22;8838;50.144;8.176;2023-06-10T15:50:33;28.60;95.80